Akron, Pennsylvania
Current Conditions -  °F | °C
As of 11:53 AM on Saturday 22 Nov 2014 (Local Time) from KLNS Reporting Station
Clear Clear  
Wind Chill: 34°   Ceiling: Unl
Heat Index: 40°   Visibility: 10mi
Dew Point: 13°   Wind: 9mph
Humidity: 33%   Direction: 230°SW
Pressure: 30.37"   Gusts: NA
Location:  40.16°N, 76.2°W
Report Text: KLNS 221653Z 23008KT 10SM CLR 04/M11 A3037 RMK AO2 SLP291 T00441106
Loading
Personal Weather Stations






























Interactive Weather Map New forecast layout! Learn more

10-Day Weather Forecast

Advertisements
Track Severe Weather on mobile